RJA505 OJAI-HECA
Flight info
| Callsign | RJA505 |
|---|---|
| Flight time | 1h 0m |
| Altitude | 30000 |
| Route | LOSIL M319 ULINA M690 NOVPA N697 MENLI L677 CVO |
| Aircraft | A21N/M-SDE2E3FGHIRWXY/LB1 |
Departure
| Time | 2026-05-06 09:22 |
|---|---|
| Airport | Queen Alia International Airport (OJAI) |
Arrival
| Time | 2026-05-06 10:23 |
|---|---|
| Airport | Cairo International Airport (HECA) |
| Time | Latitude | Longitude | Altitude | Speed | Heading |
|---|---|---|---|---|---|
| 2026-05-06 09:01 | 31.71916 | 35.98700 | 2414 ft | 0 kts | 171° |
| 2026-05-06 09:12 | 31.71920 | 35.98699 | 2414 ft | 3 kts | 171° |
| 2026-05-06 09:12 | 31.71943 | 35.98695 | 2414 ft | 4 kts | 164° |
| 2026-05-06 09:12 | 31.71961 | 35.98680 | 2414 ft | 4 kts | 107° |
| 2026-05-06 09:12 | 31.71962 | 35.98652 | 2413 ft | 2 kts | 80° |
| 2026-05-06 09:13 | 31.71961 | 35.98645 | 2413 ft | 0 kts | 80° |
| 2026-05-06 09:15 | 31.71966 | 35.98678 | 2414 ft | 9 kts | 80° |
| 2026-05-06 09:15 | 31.71978 | 35.98756 | 2414 ft | 11 kts | 79° |
| 2026-05-06 09:15 | 31.71993 | 35.98853 | 2414 ft | 13 kts | 79° |
| 2026-05-06 09:16 | 31.72011 | 35.98962 | 2414 ft | 14 kts | 79° |
| 2026-05-06 09:16 | 31.72022 | 35.99084 | 2414 ft | 16 kts | 82° |
| 2026-05-06 09:16 | 31.72059 | 35.99208 | 2414 ft | 17 kts | 65° |
| 2026-05-06 09:16 | 31.72087 | 35.99346 | 2414 ft | 18 kts | 79° |
| 2026-05-06 09:17 | 31.72094 | 35.99390 | 2414 ft | 0 kts | 79° |
| 2026-05-06 09:17 | 31.72095 | 35.99394 | 2414 ft | 2 kts | 74° |
| 2026-05-06 09:18 | 31.72104 | 35.99463 | 2414 ft | 20 kts | 82° |
| 2026-05-06 09:18 | 31.72074 | 35.99612 | 2414 ft | 22 kts | 166° |
| 2026-05-06 09:18 | 31.71965 | 35.99705 | 2414 ft | 23 kts | 89° |
| 2026-05-06 09:18 | 31.71982 | 35.99893 | 2414 ft | 24 kts | 82° |
| 2026-05-06 09:19 | 31.72018 | 36.00084 | 2414 ft | 25 kts | 83° |
| 2026-05-06 09:19 | 31.72041 | 36.00296 | 2414 ft | 27 kts | 82° |
| 2026-05-06 09:19 | 31.72068 | 36.00499 | 2414 ft | 21 kts | 81° |
| 2026-05-06 09:19 | 31.72094 | 36.00674 | 2414 ft | 22 kts | 80° |
| 2026-05-06 09:20 | 31.72122 | 36.00870 | 2414 ft | 30 kts | 80° |
| 2026-05-06 09:20 | 31.72160 | 36.01120 | 2414 ft | 32 kts | 81° |
| 2026-05-06 09:20 | 31.72197 | 36.01378 | 2414 ft | 33 kts | 80° |
| 2026-05-06 09:20 | 31.72237 | 36.01643 | 2414 ft | 31 kts | 80° |
| 2026-05-06 09:21 | 31.72167 | 36.01815 | 2414 ft | 28 kts | 172° |
| 2026-05-06 09:21 | 31.72000 | 36.01827 | 2417 ft | 22 kts | 218° |
| 2026-05-06 09:21 | 31.71954 | 36.01652 | 2417 ft | 32 kts | 259° |
| 2026-05-06 09:21 | 31.71878 | 36.01129 | 2414 ft | 96 kts | 261° |
| 2026-05-06 09:22 | 31.71738 | 36.00142 | 2416 ft | 144 kts | 260° |
| 2026-05-06 09:22 | 31.71556 | 35.98866 | 2415 ft | 176 kts | 260° |
| 2026-05-06 09:22 | 31.71349 | 35.97452 | 2877 ft | 176 kts | 259° |
| 2026-05-06 09:22 | 31.71094 | 35.96027 | 3436 ft | 178 kts | 259° |
| 2026-05-06 09:23 | 31.70867 | 35.94603 | 4004 ft | 178 kts | 260° |
| 2026-05-06 09:23 | 31.70638 | 35.93124 | 4385 ft | 190 kts | 261° |
| 2026-05-06 09:23 | 31.70404 | 35.91552 | 4816 ft | 205 kts | 260° |
| 2026-05-06 09:23 | 31.70115 | 35.89849 | 5267 ft | 220 kts | 256° |
| 2026-05-06 09:24 | 31.69377 | 35.88215 | 5658 ft | 238 kts | 227° |
| 2026-05-06 09:24 | 31.67956 | 35.87113 | 6132 ft | 257 kts | 201° |
| 2026-05-06 09:24 | 31.66192 | 35.86514 | 6701 ft | 270 kts | 196° |
| 2026-05-06 09:24 | 31.64362 | 35.85971 | 7466 ft | 273 kts | 196° |
| 2026-05-06 09:25 | 31.62544 | 35.85414 | 8253 ft | 274 kts | 197° |
| 2026-05-06 09:25 | 31.60697 | 35.84830 | 9068 ft | 276 kts | 198° |
| 2026-05-06 09:25 | 31.58839 | 35.84237 | 9881 ft | 278 kts | 199° |
| 2026-05-06 09:25 | 31.56949 | 35.83626 | 10438 ft | 289 kts | 199° |
| 2026-05-06 09:26 | 31.54946 | 35.82975 | 10714 ft | 308 kts | 199° |
| 2026-05-06 09:26 | 31.52815 | 35.82280 | 10968 ft | 328 kts | 199° |
| 2026-05-06 09:26 | 31.50549 | 35.81543 | 11204 ft | 347 kts | 199° |
| 2026-05-06 09:26 | 31.48175 | 35.80770 | 11547 ft | 360 kts | 199° |
| 2026-05-06 09:27 | 31.45741 | 35.79978 | 12131 ft | 366 kts | 199° |
| 2026-05-06 09:27 | 31.43269 | 35.79174 | 12780 ft | 370 kts | 199° |
| 2026-05-06 09:27 | 31.40777 | 35.78363 | 13417 ft | 375 kts | 199° |
| 2026-05-06 09:27 | 31.38250 | 35.77542 | 14032 ft | 379 kts | 200° |
| 2026-05-06 09:28 | 31.35696 | 35.76713 | 14595 ft | 383 kts | 200° |
| 2026-05-06 09:28 | 31.33120 | 35.75873 | 15170 ft | 386 kts | 200° |
| 2026-05-06 09:28 | 31.30526 | 35.75026 | 15762 ft | 388 kts | 200° |
| 2026-05-06 09:28 | 31.27918 | 35.74177 | 16365 ft | 391 kts | 200° |
| 2026-05-06 09:29 | 31.25286 | 35.73323 | 16957 ft | 394 kts | 200° |
| 2026-05-06 09:29 | 31.22637 | 35.72462 | 17537 ft | 397 kts | 200° |
| 2026-05-06 09:29 | 31.19968 | 35.71592 | 18067 ft | 401 kts | 200° |
| 2026-05-06 09:29 | 31.17267 | 35.70714 | 18599 ft | 404 kts | 200° |
| 2026-05-06 09:30 | 31.14552 | 35.69832 | 19114 ft | 407 kts | 200° |
| 2026-05-06 09:30 | 31.11814 | 35.68939 | 19613 ft | 409 kts | 200° |
| 2026-05-06 09:30 | 31.09062 | 35.68050 | 20122 ft | 411 kts | 200° |
| 2026-05-06 09:30 | 31.06293 | 35.67155 | 20616 ft | 414 kts | 200° |
| 2026-05-06 09:31 | 31.03554 | 35.66269 | 21099 ft | 416 kts | 201° |
| 2026-05-06 09:31 | 31.00747 | 35.65362 | 21558 ft | 419 kts | 200° |
| 2026-05-06 09:31 | 30.97932 | 35.64450 | 22017 ft | 421 kts | 201° |
| 2026-05-06 09:31 | 30.95097 | 35.63529 | 22506 ft | 424 kts | 201° |
| 2026-05-06 09:32 | 30.92243 | 35.62606 | 22985 ft | 427 kts | 201° |
| 2026-05-06 09:32 | 30.89377 | 35.61680 | 23428 ft | 429 kts | 201° |
| 2026-05-06 09:32 | 30.86495 | 35.60748 | 23849 ft | 432 kts | 201° |
| 2026-05-06 09:32 | 30.83581 | 35.59811 | 24238 ft | 434 kts | 201° |
| 2026-05-06 09:33 | 30.80661 | 35.58873 | 24635 ft | 436 kts | 201° |
| 2026-05-06 09:33 | 30.77738 | 35.57930 | 24999 ft | 438 kts | 201° |
| 2026-05-06 09:33 | 30.74781 | 35.56979 | 25415 ft | 440 kts | 201° |
| 2026-05-06 09:33 | 30.71828 | 35.56029 | 25821 ft | 441 kts | 201° |
| 2026-05-06 09:34 | 30.68874 | 35.55079 | 26284 ft | 440 kts | 201° |
| 2026-05-06 09:34 | 30.65934 | 35.54135 | 26802 ft | 437 kts | 201° |
| 2026-05-06 09:34 | 30.63008 | 35.53198 | 27298 ft | 435 kts | 201° |
| 2026-05-06 09:34 | 30.60095 | 35.52265 | 27800 ft | 433 kts | 201° |
| 2026-05-06 09:35 | 30.57199 | 35.51337 | 28375 ft | 430 kts | 201° |
| 2026-05-06 09:35 | 30.54320 | 35.50420 | 28871 ft | 429 kts | 201° |
| 2026-05-06 09:35 | 30.51451 | 35.49504 | 29365 ft | 427 kts | 201° |
| 2026-05-06 09:35 | 30.48615 | 35.48597 | 29849 ft | 426 kts | 201° |
| 2026-05-06 09:36 | 30.45736 | 35.47674 | 30106 ft | 425 kts | 201° |
| 2026-05-06 09:36 | 30.40044 | 35.45858 | 30144 ft | 423 kts | 201° |
| 2026-05-06 09:37 | 30.34358 | 35.44045 | 30112 ft | 424 kts | 201° |
| 2026-05-06 09:37 | 30.28687 | 35.42237 | 30121 ft | 424 kts | 201° |
| 2026-05-06 09:38 | 30.22999 | 35.40433 | 30124 ft | 424 kts | 201° |
| 2026-05-06 09:38 | 30.17354 | 35.38632 | 30096 ft | 425 kts | 201° |
| 2026-05-06 09:39 | 30.11555 | 35.36783 | 30114 ft | 440 kts | 201° |
| 2026-05-06 09:39 | 30.05633 | 35.34907 | 30116 ft | 441 kts | 200° |
| 2026-05-06 09:40 | 29.99714 | 35.33031 | 30056 ft | 443 kts | 201° |
| 2026-05-06 09:40 | 29.90808 | 35.30226 | 30080 ft | 442 kts | 200° |
| 2026-05-06 09:41 | 29.84879 | 35.28355 | 30087 ft | 442 kts | 200° |
| 2026-05-06 09:41 | 29.78944 | 35.26486 | 30075 ft | 442 kts | 200° |
| 2026-05-06 09:42 | 29.73008 | 35.24628 | 30050 ft | 443 kts | 200° |
| 2026-05-06 09:42 | 29.67058 | 35.22761 | 30078 ft | 443 kts | 200° |
| 2026-05-06 09:43 | 29.61140 | 35.20782 | 30082 ft | 439 kts | 206° |
| 2026-05-06 09:43 | 29.58443 | 35.19205 | 30085 ft | 433 kts | 217° |
| 2026-05-06 09:43 | 29.56120 | 35.17057 | 30083 ft | 427 kts | 227° |
| 2026-05-06 09:44 | 29.52238 | 35.11884 | 30060 ft | 428 kts | 232° |
| 2026-05-06 09:44 | 29.48433 | 35.06668 | 30089 ft | 430 kts | 232° |
| 2026-05-06 09:45 | 29.44543 | 35.01404 | 30084 ft | 429 kts | 232° |
| 2026-05-06 09:45 | 29.40469 | 34.96465 | 30084 ft | 432 kts | 221° |
| 2026-05-06 09:46 | 29.35494 | 34.92460 | 30064 ft | 436 kts | 217° |
| 2026-05-06 09:46 | 29.30481 | 34.88542 | 30065 ft | 436 kts | 218° |
| 2026-05-06 09:47 | 29.25502 | 34.84636 | 30063 ft | 436 kts | 218° |
| 2026-05-06 09:47 | 29.20501 | 34.80702 | 30068 ft | 436 kts | 218° |
| 2026-05-06 09:48 | 29.15494 | 34.76751 | 30049 ft | 438 kts | 218° |
| 2026-05-06 09:48 | 29.10576 | 34.72646 | 30066 ft | 435 kts | 225° |
| 2026-05-06 09:49 | 29.08584 | 34.70072 | 30061 ft | 432 kts | 236° |
| 2026-05-06 09:49 | 29.07105 | 34.67100 | 30063 ft | 430 kts | 247° |
| 2026-05-06 09:49 | 29.06206 | 34.63844 | 30063 ft | 430 kts | 258° |
| 2026-05-06 09:49 | 29.05914 | 34.60452 | 30067 ft | 431 kts | 269° |
| 2026-05-06 09:50 | 29.07040 | 34.53707 | 30071 ft | 436 kts | 285° |
| 2026-05-06 09:50 | 29.09001 | 34.47143 | 30082 ft | 436 kts | 286° |
| 2026-05-06 09:51 | 29.10938 | 34.40576 | 30078 ft | 435 kts | 285° |
| 2026-05-06 09:51 | 29.12859 | 34.34027 | 30078 ft | 435 kts | 285° |
| 2026-05-06 09:52 | 29.14773 | 34.27460 | 30085 ft | 435 kts | 285° |
| 2026-05-06 09:52 | 29.16693 | 34.20890 | 30094 ft | 435 kts | 285° |
| 2026-05-06 09:53 | 29.18586 | 34.14387 | 30080 ft | 435 kts | 285° |
| 2026-05-06 09:53 | 29.20585 | 34.07794 | 30087 ft | 436 kts | 288° |
| 2026-05-06 09:54 | 29.22790 | 34.01334 | 30088 ft | 436 kts | 288° |
| 2026-05-06 09:54 | 29.24990 | 33.94873 | 30095 ft | 435 kts | 288° |
| 2026-05-06 09:55 | 29.27177 | 33.88476 | 30092 ft | 434 kts | 288° |
| 2026-05-06 09:55 | 29.29368 | 33.82033 | 30092 ft | 434 kts | 288° |
| 2026-05-06 09:56 | 29.31545 | 33.75586 | 30086 ft | 434 kts | 288° |
| 2026-05-06 09:56 | 29.33728 | 33.69146 | 30086 ft | 434 kts | 288° |
| 2026-05-06 09:57 | 29.35883 | 33.62760 | 29705 ft | 420 kts | 288° |
| 2026-05-06 09:57 | 29.36931 | 33.59673 | 29375 ft | 414 kts | 288° |
| 2026-05-06 09:57 | 29.37983 | 33.56594 | 29084 ft | 416 kts | 288° |
| 2026-05-06 09:58 | 29.38680 | 33.54545 | 28895 ft | 416 kts | 288° |
| 2026-05-06 09:58 | 29.39729 | 33.51448 | 28633 ft | 418 kts | 288° |
| 2026-05-06 09:58 | 29.40789 | 33.48341 | 28365 ft | 419 kts | 288° |
| 2026-05-06 09:58 | 29.41849 | 33.45227 | 28103 ft | 419 kts | 288° |
| 2026-05-06 09:59 | 29.42897 | 33.42103 | 27843 ft | 421 kts | 288° |
| 2026-05-06 09:59 | 29.43948 | 33.38965 | 27587 ft | 422 kts | 288° |
| 2026-05-06 09:59 | 29.44987 | 33.35812 | 27330 ft | 423 kts | 288° |
| 2026-05-06 09:59 | 29.46033 | 33.32653 | 27078 ft | 424 kts | 288° |
| 2026-05-06 10:00 | 29.47095 | 33.29498 | 26825 ft | 423 kts | 289° |
| 2026-05-06 10:00 | 29.48161 | 33.26355 | 26574 ft | 422 kts | 289° |
| 2026-05-06 10:00 | 29.49560 | 33.22204 | 26246 ft | 420 kts | 289° |
| 2026-05-06 10:00 | 29.50264 | 33.20092 | 26084 ft | 420 kts | 289° |
| 2026-05-06 10:01 | 29.51311 | 33.16970 | 25831 ft | 418 kts | 289° |
| 2026-05-06 10:01 | 29.52354 | 33.13856 | 25598 ft | 418 kts | 289° |
| 2026-05-06 10:01 | 29.53387 | 33.10738 | 25367 ft | 417 kts | 289° |
| 2026-05-06 10:01 | 29.54419 | 33.07632 | 25133 ft | 416 kts | 289° |
| 2026-05-06 10:02 | 29.55443 | 33.04524 | 24894 ft | 415 kts | 289° |
| 2026-05-06 10:02 | 29.56477 | 33.01431 | 24661 ft | 415 kts | 289° |
| 2026-05-06 10:02 | 29.57510 | 32.98345 | 24432 ft | 414 kts | 289° |
| 2026-05-06 10:02 | 29.58537 | 32.95258 | 24198 ft | 413 kts | 289° |
| 2026-05-06 10:03 | 29.59553 | 32.92179 | 23963 ft | 412 kts | 289° |
| 2026-05-06 10:03 | 29.60558 | 32.89100 | 23745 ft | 411 kts | 289° |
| 2026-05-06 10:03 | 29.61577 | 32.86029 | 23489 ft | 411 kts | 290° |
| 2026-05-06 10:03 | 29.62595 | 32.82962 | 23213 ft | 410 kts | 290° |
| 2026-05-06 10:04 | 29.63612 | 32.79906 | 22963 ft | 409 kts | 290° |
| 2026-05-06 10:04 | 29.64624 | 32.76859 | 22704 ft | 407 kts | 290° |
| 2026-05-06 10:04 | 29.65614 | 32.73862 | 22443 ft | 406 kts | 290° |
| 2026-05-06 10:04 | 29.66625 | 32.70794 | 22184 ft | 404 kts | 290° |
| 2026-05-06 10:05 | 29.67603 | 32.67813 | 21936 ft | 403 kts | 290° |
| 2026-05-06 10:05 | 29.68603 | 32.64763 | 21676 ft | 402 kts | 290° |
| 2026-05-06 10:05 | 29.69569 | 32.61800 | 21435 ft | 400 kts | 290° |
| 2026-05-06 10:05 | 29.70555 | 32.58810 | 21186 ft | 399 kts | 290° |
| 2026-05-06 10:06 | 29.71538 | 32.55826 | 20940 ft | 398 kts | 290° |
| 2026-05-06 10:06 | 29.72516 | 32.52852 | 20691 ft | 397 kts | 290° |
| 2026-05-06 10:06 | 29.73487 | 32.49886 | 20450 ft | 395 kts | 290° |
| 2026-05-06 10:06 | 29.74454 | 32.46931 | 20208 ft | 394 kts | 290° |
| 2026-05-06 10:07 | 29.75417 | 32.43985 | 19972 ft | 393 kts | 290° |
| 2026-05-06 10:07 | 29.76373 | 32.41048 | 19736 ft | 391 kts | 290° |
| 2026-05-06 10:07 | 29.77318 | 32.38117 | 19498 ft | 390 kts | 290° |
| 2026-05-06 10:07 | 29.78265 | 32.35196 | 19264 ft | 389 kts | 290° |
| 2026-05-06 10:08 | 29.79218 | 32.32290 | 19033 ft | 388 kts | 290° |
| 2026-05-06 10:08 | 29.80165 | 32.29390 | 18800 ft | 386 kts | 290° |
| 2026-05-06 10:08 | 29.81110 | 32.26496 | 18580 ft | 385 kts | 290° |
| 2026-05-06 10:08 | 29.82049 | 32.23613 | 18341 ft | 384 kts | 290° |
| 2026-05-06 10:09 | 29.82984 | 32.20731 | 18074 ft | 383 kts | 290° |
| 2026-05-06 10:09 | 29.83911 | 32.17862 | 17822 ft | 381 kts | 290° |
| 2026-05-06 10:09 | 29.84828 | 32.15001 | 17571 ft | 380 kts | 290° |
| 2026-05-06 10:09 | 29.85755 | 32.12155 | 17310 ft | 379 kts | 290° |
| 2026-05-06 10:10 | 29.86676 | 32.09314 | 17055 ft | 377 kts | 290° |
| 2026-05-06 10:10 | 29.87593 | 32.06488 | 16805 ft | 376 kts | 290° |
| 2026-05-06 10:10 | 29.88507 | 32.03667 | 16552 ft | 375 kts | 290° |
| 2026-05-06 10:10 | 29.89413 | 32.00865 | 16183 ft | 370 kts | 290° |
| 2026-05-06 10:11 | 29.90303 | 31.98098 | 15545 ft | 367 kts | 289° |
| 2026-05-06 10:11 | 29.91174 | 31.95343 | 14920 ft | 365 kts | 288° |
| 2026-05-06 10:11 | 29.91633 | 31.92520 | 14309 ft | 363 kts | 274° |
| 2026-05-06 10:11 | 29.91709 | 31.89588 | 13695 ft | 360 kts | 270° |
| 2026-05-06 10:12 | 29.91698 | 31.86753 | 13080 ft | 357 kts | 270° |
| 2026-05-06 10:12 | 29.91669 | 31.83899 | 12458 ft | 355 kts | 270° |
| 2026-05-06 10:12 | 29.91633 | 31.81069 | 11843 ft | 352 kts | 270° |
| 2026-05-06 10:12 | 29.91591 | 31.78256 | 11253 ft | 349 kts | 270° |
| 2026-05-06 10:13 | 29.91541 | 31.75493 | 10936 ft | 339 kts | 270° |
| 2026-05-06 10:13 | 29.91487 | 31.72833 | 10729 ft | 325 kts | 270° |
| 2026-05-06 10:13 | 29.91432 | 31.70286 | 10548 ft | 311 kts | 270° |
| 2026-05-06 10:13 | 29.91377 | 31.67844 | 10382 ft | 298 kts | 270° |
| 2026-05-06 10:14 | 29.91321 | 31.65511 | 10210 ft | 286 kts | 270° |
| 2026-05-06 10:14 | 29.91266 | 31.63249 | 9873 ft | 280 kts | 270° |
| 2026-05-06 10:14 | 29.91209 | 31.61013 | 9445 ft | 278 kts | 270° |
| 2026-05-06 10:14 | 29.91151 | 31.58790 | 8983 ft | 277 kts | 270° |
| 2026-05-06 10:15 | 29.91092 | 31.56581 | 8536 ft | 275 kts | 270° |
| 2026-05-06 10:15 | 29.91030 | 31.54382 | 8118 ft | 273 kts | 269° |
| 2026-05-06 10:15 | 29.90969 | 31.52211 | 7694 ft | 273 kts | 270° |
| 2026-05-06 10:15 | 29.90903 | 31.50015 | 7284 ft | 272 kts | 269° |
| 2026-05-06 10:16 | 29.90837 | 31.47840 | 6903 ft | 271 kts | 270° |
| 2026-05-06 10:16 | 29.90767 | 31.45678 | 6529 ft | 269 kts | 269° |
| 2026-05-06 10:16 | 29.90697 | 31.43531 | 6099 ft | 268 kts | 270° |
| 2026-05-06 10:16 | 29.90701 | 31.41391 | 5674 ft | 267 kts | 274° |
| 2026-05-06 10:17 | 29.90920 | 31.39286 | 5240 ft | 263 kts | 288° |
| 2026-05-06 10:17 | 29.91555 | 31.37305 | 4819 ft | 264 kts | 294° |
| 2026-05-06 10:17 | 29.92256 | 31.35352 | 4367 ft | 264 kts | 295° |
| 2026-05-06 10:17 | 29.93226 | 31.33582 | 3956 ft | 261 kts | 311° |
| 2026-05-06 10:18 | 29.94430 | 31.32023 | 3571 ft | 260 kts | 314° |
| 2026-05-06 10:18 | 29.95645 | 31.30499 | 3206 ft | 256 kts | 316° |
| 2026-05-06 10:18 | 29.97061 | 31.29369 | 3010 ft | 240 kts | 340° |
| 2026-05-06 10:18 | 29.98620 | 31.28980 | 2959 ft | 225 kts | 360° |
| 2026-05-06 10:19 | 30.00114 | 31.29254 | 2945 ft | 208 kts | 25° |
| 2026-05-06 10:19 | 30.01222 | 31.30227 | 2944 ft | 206 kts | 46° |
| 2026-05-06 10:19 | 30.02110 | 31.31500 | 2799 ft | 197 kts | 52° |
| 2026-05-06 10:19 | 30.02912 | 31.32731 | 2585 ft | 182 kts | 50° |
| 2026-05-06 10:20 | 30.03685 | 31.33831 | 2360 ft | 172 kts | 48° |
| 2026-05-06 10:20 | 30.04423 | 31.34836 | 2105 ft | 158 kts | 47° |
| 2026-05-06 10:20 | 30.05115 | 31.35767 | 1844 ft | 145 kts | 46° |
| 2026-05-06 10:20 | 30.05742 | 31.36605 | 1652 ft | 136 kts | 46° |
| 2026-05-06 10:21 | 30.06358 | 31.37425 | 1458 ft | 136 kts | 47° |
| 2026-05-06 10:21 | 30.06981 | 31.38257 | 1308 ft | 139 kts | 46° |
| 2026-05-06 10:21 | 30.07620 | 31.39111 | 1126 ft | 141 kts | 47° |
| 2026-05-06 10:21 | 30.08249 | 31.39951 | 944 ft | 139 kts | 46° |
| 2026-05-06 10:22 | 30.08879 | 31.40796 | 765 ft | 137 kts | 46° |
| 2026-05-06 10:22 | 30.09493 | 31.41620 | 575 ft | 138 kts | 46° |
| 2026-05-06 10:22 | 30.10113 | 31.42437 | 469 ft | 133 kts | 47° |
| 2026-05-06 10:22 | 30.10630 | 31.43124 | 454 ft | 86 kts | 47° |
| 2026-05-06 10:23 | 30.10900 | 31.43455 | 454 ft | 33 kts | 25° |
| 2026-05-06 10:23 | 30.11056 | 31.43548 | 454 ft | 12 kts | 24° |
| 2026-05-06 10:23 | 30.11135 | 31.43586 | 455 ft | 13 kts | 23° |
| 2026-05-06 10:23 | 30.11225 | 31.43569 | 455 ft | 15 kts | 321° |
| 2026-05-06 10:24 | 30.11234 | 31.43454 | 455 ft | 16 kts | 293° |
| 2026-05-06 10:24 | 30.11307 | 31.43361 | 456 ft | 14 kts | 326° |
| 2026-05-06 10:24 | 30.11382 | 31.43279 | 456 ft | 16 kts | 320° |
| 2026-05-06 10:24 | 30.11453 | 31.43209 | 452 ft | 12 kts | 318° |
| 2026-05-06 10:25 | 30.11512 | 31.43149 | 433 ft | 11 kts | 318° |
| 2026-05-06 10:25 | 30.11569 | 31.43091 | 435 ft | 11 kts | 321° |
| 2026-05-06 10:25 | 30.11624 | 31.43038 | 434 ft | 10 kts | 321° |
| 2026-05-06 10:25 | 30.11674 | 31.42988 | 419 ft | 9 kts | 319° |
| 2026-05-06 10:26 | 30.11719 | 31.42944 | 420 ft | 8 kts | 320° |
| 2026-05-06 10:26 | 30.11768 | 31.42895 | 412 ft | 9 kts | 320° |
| 2026-05-06 10:26 | 30.11819 | 31.42849 | 413 ft | 10 kts | 326° |
| 2026-05-06 10:26 | 30.11872 | 31.42793 | 408 ft | 10 kts | 320° |
| 2026-05-06 10:27 | 30.11947 | 31.42714 | 399 ft | 24 kts | 316° |
| 2026-05-06 10:27 | 30.12073 | 31.42584 | 393 ft | 25 kts | 323° |
| 2026-05-06 10:27 | 30.12192 | 31.42452 | 390 ft | 14 kts | 289° |
| 2026-05-06 10:27 | 30.12151 | 31.42352 | 393 ft | 16 kts | 235° |
| 2026-05-06 10:28 | 30.12071 | 31.42239 | 394 ft | 20 kts | 233° |
| 2026-05-06 10:28 | 30.11977 | 31.42122 | 394 ft | 21 kts | 223° |
| 2026-05-06 10:28 | 30.11914 | 31.42019 | 391 ft | 14 kts | 215° |
| 2026-05-06 10:28 | 30.11841 | 31.41934 | 393 ft | 16 kts | 229° |
| 2026-05-06 10:29 | 30.11762 | 31.41831 | 394 ft | 18 kts | 230° |
| 2026-05-06 10:29 | 30.11676 | 31.41719 | 394 ft | 19 kts | 228° |
| 2026-05-06 10:29 | 30.11580 | 31.41612 | 391 ft | 20 kts | 222° |
| 2026-05-06 10:29 | 30.11550 | 31.41547 | 394 ft | 0 kts | 290° |
| 2026-05-06 10:30 | 30.11533 | 31.41524 | 392 ft | 2 kts | 215° |
| 2026-05-06 10:30 | 30.11484 | 31.41461 | 391 ft | 20 kts | 230° |
| 2026-05-06 10:30 | 30.11387 | 31.41331 | 393 ft | 22 kts | 232° |
| 2026-05-06 10:30 | 30.11282 | 31.41190 | 392 ft | 24 kts | 229° |
| 2026-05-06 10:31 | 30.11172 | 31.41042 | 394 ft | 25 kts | 230° |
| 2026-05-06 10:31 | 30.11070 | 31.40904 | 394 ft | 20 kts | 235° |
| 2026-05-06 10:31 | 30.11069 | 31.40811 | 392 ft | 0 kts | 325° |
| 2026-05-06 10:31 | 30.11075 | 31.40796 | 391 ft | 7 kts | 275° |
| 2026-05-06 10:32 | 30.11064 | 31.40778 | 389 ft | 5 kts | 235° |
| 2026-05-06 10:32 | 30.11067 | 31.40714 | 384 ft | 3 kts | 233° |
| 2026-05-06 10:32 | 30.11046 | 31.40691 | 385 ft | 14 kts | 224° |
| 2026-05-06 10:32 | 30.10962 | 31.40594 | 384 ft | 20 kts | 229° |
| 2026-05-06 10:33 | 30.10905 | 31.40472 | 384 ft | 15 kts | 271° |
| 2026-05-06 10:33 | 30.10919 | 31.40412 | 380 ft | 14 kts | 317° |
| 2026-05-06 10:33 | 30.10944 | 31.40409 | 378 ft | 0 kts | 60° |
| 2026-05-06 10:33 | 30.10952 | 31.40414 | 378 ft | 1 kts | 13° |
| 2026-05-06 10:34 | 30.10964 | 31.40410 | 377 ft | 6 kts | 345° |
| 2026-05-06 10:34 | 30.10985 | 31.40408 | 376 ft | 0 kts | 7° |